sensor_id;sensor_type;location;lat;lon;timestamp;P1;durP1;ratioP1;P2;durP2;ratioP2
4422;SDS011;2224;49.814;8.650;2023-05-13T00:01:13;12.47;;;11.37;;
4422;SDS011;2224;49.814;8.650;2023-05-13T00:03:39;12.50;;;11.40;;
4422;SDS011;2224;49.814;8.650;2023-05-13T00:06:04;12.33;;;11.17;;
4422;SDS011;2224;49.814;8.650;2023-05-13T00:08:30;12.40;;;10.40;;
4422;SDS011;2224;49.814;8.650;2023-05-13T00:10:55;12.77;;;11.47;;
4422;SDS011;2224;49.814;8.650;2023-05-13T00:13:21;14.67;;;11.57;;
4422;SDS011;2224;49.814;8.650;2023-05-13T00:15:46;12.13;;;11.03;;
4422;SDS011;2224;49.814;8.650;2023-05-13T00:18:11;12.30;;;11.20;;
4422;SDS011;2224;49.814;8.650;2023-05-13T00:20:37;11.90;;;10.90;;
4422;SDS011;2224;49.814;8.650;2023-05-13T00:23:02;12.80;;;11.50;;
4422;SDS011;2224;49.814;8.650;2023-05-13T00:25:27;13.43;;;11.13;;
4422;SDS011;2224;49.814;8.650;2023-05-13T00:27:53;13.57;;;11.70;;
4422;SDS011;2224;49.814;8.650;2023-05-13T00:30:18;12.17;;;11.07;;
4422;SDS011;2224;49.814;8.650;2023-05-13T00:32:44;12.20;;;11.20;;
4422;SDS011;2224;49.814;8.650;2023-05-13T00:35:10;12.43;;;11.23;;
4422;SDS011;2224;49.814;8.650;2023-05-13T00:37:35;12.77;;;10.37;;
4422;SDS011;2224;49.814;8.650;2023-05-13T00:40:00;11.87;;;10.77;;
4422;SDS011;2224;49.814;8.650;2023-05-13T00:42:26;12.50;;;11.30;;
4422;SDS011;2224;49.814;8.650;2023-05-13T00:44:51;12.80;;;11.50;;
4422;SDS011;2224;49.814;8.650;2023-05-13T00:47:16;11.60;;;10.47;;
4422;SDS011;2224;49.814;8.650;2023-05-13T00:49:42;11.20;;;10.10;;
4422;SDS011;2224;49.814;8.650;2023-05-13T00:52:07;10.97;;;9.50;;
4422;SDS011;2224;49.814;8.650;2023-05-13T00:54:33;11.20;;;10.10;;
4422;SDS011;2224;49.814;8.650;2023-05-13T00:56:58;11.00;;;10.00;;
4422;SDS011;2224;49.814;8.650;2023-05-13T00:59:25;11.50;;;10.00;;
4422;SDS011;2224;49.814;8.650;2023-05-13T01:07:11;10.40;;;9.50;;
4422;SDS011;2224;49.814;8.650;2023-05-13T01:09:59;12.63;;;9.73;;
4422;SDS011;2224;49.814;8.650;2023-05-13T01:12:44;11.90;;;10.80;;
4422;SDS011;2224;49.814;8.650;2023-05-13T01:15:14;11.10;;;10.10;;
4422;SDS011;2224;49.814;8.650;2023-05-13T01:17:42;11.33;;;10.23;;
4422;SDS011;2224;49.814;8.650;2023-05-13T01:20:11;11.93;;;10.83;;
4422;SDS011;2224;49.814;8.650;2023-05-13T01:22:38;12.30;;;11.10;;
4422;SDS011;2224;49.814;8.650;2023-05-13T01:25:03;11.27;;;10.17;;
4422;SDS011;2224;49.814;8.650;2023-05-13T01:27:29;11.90;;;10.70;;
4422;SDS011;2224;49.814;8.650;2023-05-13T01:29:54;11.90;;;10.80;;
4422;SDS011;2224;49.814;8.650;2023-05-13T01:32:21;12.70;;;11.60;;
4422;SDS011;2224;49.814;8.650;2023-05-13T01:34:46;12.53;;;11.33;;
4422;SDS011;2224;49.814;8.650;2023-05-13T01:37:14;11.70;;;10.63;;
4422;SDS011;2224;49.814;8.650;2023-05-13T01:39:39;12.00;;;10.90;;
4422;SDS011;2224;49.814;8.650;2023-05-13T01:42:05;12.60;;;11.50;;
4422;SDS011;2224;49.814;8.650;2023-05-13T01:44:30;11.67;;;10.67;;
4422;SDS011;2224;49.814;8.650;2023-05-13T01:46:56;10.97;;;10.07;;
4422;SDS011;2224;49.814;8.650;2023-05-13T01:49:21;11.80;;;10.80;;
4422;SDS011;2224;49.814;8.650;2023-05-13T01:51:46;12.30;;;11.20;;
4422;SDS011;2224;49.814;8.650;2023-05-13T01:54:12;11.23;;;10.17;;
4422;SDS011;2224;49.814;8.650;2023-05-13T01:56:37;11.47;;;10.13;;
4422;SDS011;2224;49.814;8.650;2023-05-13T01:59:03;11.57;;;10.47;;
4422;SDS011;2224;49.814;8.650;2023-05-13T02:01:28;11.87;;;10.70;;
4422;SDS011;2224;49.814;8.650;2023-05-13T02:03:55;12.30;;;10.53;;
4422;SDS011;2224;49.814;8.650;2023-05-13T02:06:21;13.10;;;11.80;;
4422;SDS011;2224;49.814;8.650;2023-05-13T02:08:46;11.50;;;10.30;;
4422;SDS011;2224;49.814;8.650;2023-05-13T02:11:12;11.50;;;10.50;;
4422;SDS011;2224;49.814;8.650;2023-05-13T02:13:37;11.03;;;9.93;;
4422;SDS011;2224;49.814;8.650;2023-05-13T02:16:02;11.40;;;9.47;;
4422;SDS011;2224;49.814;8.650;2023-05-13T02:18:28;10.83;;;9.93;;
4422;SDS011;2224;49.814;8.650;2023-05-13T02:20:53;12.00;;;11.00;;
4422;SDS011;2224;49.814;8.650;2023-05-13T02:23:18;10.50;;;9.13;;
4422;SDS011;2224;49.814;8.650;2023-05-13T02:25:44;11.27;;;10.17;;
4422;SDS011;2224;49.814;8.650;2023-05-13T02:28:09;10.50;;;9.60;;
4422;SDS011;2224;49.814;8.650;2023-05-13T02:30:35;11.43;;;10.33;;
4422;SDS011;2224;49.814;8.650;2023-05-13T02:33:00;10.00;;;9.20;;
4422;SDS011;2224;49.814;8.650;2023-05-13T02:35:26;11.10;;;10.10;;
4422;SDS011;2224;49.814;8.650;2023-05-13T02:37:54;14.57;;;10.00;;
4422;SDS011;2224;49.814;8.650;2023-05-13T02:40:20;10.90;;;9.83;;
4422;SDS011;2224;49.814;8.650;2023-05-13T02:42:46;10.60;;;9.70;;
4422;SDS011;2224;49.814;8.650;2023-05-13T02:45:11;12.40;;;9.20;;
4422;SDS011;2224;49.814;8.650;2023-05-13T02:47:36;10.03;;;8.97;;
4422;SDS011;2224;49.814;8.650;2023-05-13T02:50:03;11.23;;;8.73;;
4422;SDS011;2224;49.814;8.650;2023-05-13T02:52:30;9.70;;;8.77;;
4422;SDS011;2224;49.814;8.650;2023-05-13T02:54:55;12.40;;;9.40;;
4422;SDS011;2224;49.814;8.650;2023-05-13T02:57:20;12.67;;;10.10;;
4422;SDS011;2224;49.814;8.650;2023-05-13T02:59:46;10.90;;;9.90;;
4422;SDS011;2224;49.814;8.650;2023-05-13T03:02:11;10.17;;;9.17;;
4422;SDS011;2224;49.814;8.650;2023-05-13T03:04:36;10.60;;;9.60;;
4422;SDS011;2224;49.814;8.650;2023-05-13T03:07:02;11.07;;;10.07;;
4422;SDS011;2224;49.814;8.650;2023-05-13T03:09:27;11.13;;;9.93;;
4422;SDS011;2224;49.814;8.650;2023-05-13T03:11:52;11.80;;;10.60;;
4422;SDS011;2224;49.814;8.650;2023-05-13T03:14:18;12.10;;;10.30;;
4422;SDS011;2224;49.814;8.650;2023-05-13T03:16:43;11.47;;;10.37;;
4422;SDS011;2224;49.814;8.650;2023-05-13T03:19:09;11.97;;;10.87;;
4422;SDS011;2224;49.814;8.650;2023-05-13T03:21:34;11.40;;;10.40;;
4422;SDS011;2224;49.814;8.650;2023-05-13T03:23:59;12.07;;;10.97;;
4422;SDS011;2224;49.814;8.650;2023-05-13T03:26:25;11.83;;;10.73;;
4422;SDS011;2224;49.814;8.650;2023-05-13T03:28:50;11.20;;;10.30;;
4422;SDS011;2224;49.814;8.650;2023-05-13T03:31:16;11.60;;;10.07;;
4422;SDS011;2224;49.814;8.650;2023-05-13T03:33:41;11.00;;;10.07;;
4422;SDS011;2224;49.814;8.650;2023-05-13T03:36:06;10.43;;;9.53;;
4422;SDS011;2224;49.814;8.650;2023-05-13T03:38:32;12.00;;;10.00;;
4422;SDS011;2224;49.814;8.650;2023-05-13T03:40:57;11.73;;;10.60;;
4422;SDS011;2224;49.814;8.650;2023-05-13T03:43:22;10.67;;;9.07;;
4422;SDS011;2224;49.814;8.650;2023-05-13T03:45:48;10.63;;;9.73;;
4422;SDS011;2224;49.814;8.650;2023-05-13T03:48:15;10.97;;;9.90;;
4422;SDS011;2224;49.814;8.650;2023-05-13T03:50:41;10.80;;;9.80;;
4422;SDS011;2224;49.814;8.650;2023-05-13T03:53:07;10.80;;;9.80;;
4422;SDS011;2224;49.814;8.650;2023-05-13T03:55:35;10.83;;;9.70;;
4422;SDS011;2224;49.814;8.650;2023-05-13T03:58:09;10.70;;;9.70;;
4422;SDS011;2224;49.814;8.650;2023-05-13T04:00:38;11.43;;;10.43;;
4422;SDS011;2224;49.814;8.650;2023-05-13T04:03:03;11.10;;;10.00;;
4422;SDS011;2224;49.814;8.650;2023-05-13T04:05:28;9.90;;;9.00;;
4422;SDS011;2224;49.814;8.650;2023-05-13T04:07:54;11.33;;;10.23;;
4422;SDS011;2224;49.814;8.650;2023-05-13T04:10:19;11.53;;;10.33;;
4422;SDS011;2224;49.814;8.650;2023-05-13T04:12:44;10.30;;;9.40;;
4422;SDS011;2224;49.814;8.650;2023-05-13T04:15:10;10.90;;;9.90;;
4422;SDS011;2224;49.814;8.650;2023-05-13T04:17:35;12.00;;;10.90;;
4422;SDS011;2224;49.814;8.650;2023-05-13T04:20:00;10.50;;;9.53;;
4422;SDS011;2224;49.814;8.650;2023-05-13T04:22:26;12.00;;;10.90;;
4422;SDS011;2224;49.814;8.650;2023-05-13T04:24:51;10.60;;;9.70;;
4422;SDS011;2224;49.814;8.650;2023-05-13T04:27:21;10.60;;;9.60;;
4422;SDS011;2224;49.814;8.650;2023-05-13T04:29:47;11.03;;;9.90;;
4422;SDS011;2224;49.814;8.650;2023-05-13T04:32:13;10.47;;;9.57;;
4422;SDS011;2224;49.814;8.650;2023-05-13T04:34:41;10.47;;;9.43;;
4422;SDS011;2224;49.814;8.650;2023-05-13T04:37:07;10.73;;;9.73;;
4422;SDS011;2224;49.814;8.650;2023-05-13T04:39:32;10.00;;;8.20;;
4422;SDS011;2224;49.814;8.650;2023-05-13T04:41:58;9.00;;;8.20;;
4422;SDS011;2224;49.814;8.650;2023-05-13T04:44:23;9.70;;;8.70;;
4422;SDS011;2224;49.814;8.650;2023-05-13T04:46:48;10.83;;;9.83;;
4422;SDS011;2224;49.814;8.650;2023-05-13T04:49:13;9.10;;;8.30;;
4422;SDS011;2224;49.814;8.650;2023-05-13T04:51:39;9.87;;;9.07;;
4422;SDS011;2224;49.814;8.650;2023-05-13T04:54:04;10.80;;;8.57;;
4422;SDS011;2224;49.814;8.650;2023-05-13T04:56:29;9.67;;;8.87;;
4422;SDS011;2224;49.814;8.650;2023-05-13T04:58:55;8.00;;;7.30;;
4422;SDS011;2224;49.814;8.650;2023-05-13T05:01:20;8.73;;;7.93;;
4422;SDS011;2224;49.814;8.650;2023-05-13T05:03:45;8.70;;;7.90;;
4422;SDS011;2224;49.814;8.650;2023-05-13T05:06:11;8.43;;;7.63;;
4422;SDS011;2224;49.814;8.650;2023-05-13T05:08:36;10.50;;;9.53;;
4422;SDS011;2224;49.814;8.650;2023-05-13T05:11:01;9.77;;;8.87;;
4422;SDS011;2224;49.814;8.650;2023-05-13T05:13:27;8.83;;;8.03;;
4422;SDS011;2224;49.814;8.650;2023-05-13T05:15:52;9.10;;;8.30;;
4422;SDS011;2224;49.814;8.650;2023-05-13T05:18:17;9.50;;;8.70;;
4422;SDS011;2224;49.814;8.650;2023-05-13T05:20:43;10.27;;;9.37;;
4422;SDS011;2224;49.814;8.650;2023-05-13T05:23:08;9.57;;;8.67;;
4422;SDS011;2224;49.814;8.650;2023-05-13T05:25:34;9.33;;;8.47;;
4422;SDS011;2224;49.814;8.650;2023-05-13T05:28:00;10.57;;;9.60;;
4422;SDS011;2224;49.814;8.650;2023-05-13T05:30:28;9.97;;;9.07;;
4422;SDS011;2224;49.814;8.650;2023-05-13T05:32:54;9.87;;;8.63;;
4422;SDS011;2224;49.814;8.650;2023-05-13T05:35:20;9.43;;;8.23;;
4422;SDS011;2224;49.814;8.650;2023-05-13T05:37:45;9.03;;;8.23;;
4422;SDS011;2224;49.814;8.650;2023-05-13T05:40:11;10.17;;;8.20;;
4422;SDS011;2224;49.814;8.650;2023-05-13T05:42:36;9.10;;;8.20;;
4422;SDS011;2224;49.814;8.650;2023-05-13T05:45:02;10.30;;;9.30;;
4422;SDS011;2224;49.814;8.650;2023-05-13T05:47:27;9.70;;;8.67;;
4422;SDS011;2224;49.814;8.650;2023-05-13T05:49:53;9.50;;;8.73;;
4422;SDS011;2224;49.814;8.650;2023-05-13T05:52:18;9.23;;;8.47;;
4422;SDS011;2224;49.814;8.650;2023-05-13T05:54:43;9.70;;;8.80;;
4422;SDS011;2224;49.814;8.650;2023-05-13T05:57:09;10.20;;;9.30;;
4422;SDS011;2224;49.814;8.650;2023-05-13T05:59:34;9.87;;;8.87;;
4422;SDS011;2224;49.814;8.650;2023-05-13T06:01:59;11.83;;;9.40;;
4422;SDS011;2224;49.814;8.650;2023-05-13T06:04:25;9.87;;;9.03;;
4422;SDS011;2224;49.814;8.650;2023-05-13T06:06:50;9.60;;;8.77;;
4422;SDS011;2224;49.814;8.650;2023-05-13T06:09:16;9.53;;;8.33;;
4422;SDS011;2224;49.814;8.650;2023-05-13T06:11:41;8.77;;;8.07;;
4422;SDS011;2224;49.814;8.650;2023-05-13T06:14:06;9.77;;;8.90;;
4422;SDS011;2224;49.814;8.650;2023-05-13T06:16:32;8.83;;;8.03;;
4422;SDS011;2224;49.814;8.650;2023-05-13T06:18:57;9.13;;;8.17;;
4422;SDS011;2224;49.814;8.650;2023-05-13T06:21:22;8.80;;;8.10;;
4422;SDS011;2224;49.814;8.650;2023-05-13T06:23:48;10.10;;;8.27;;
4422;SDS011;2224;49.814;8.650;2023-05-13T06:26:13;10.37;;;8.13;;
4422;SDS011;2224;49.814;8.650;2023-05-13T06:28:38;10.07;;;7.57;;
4422;SDS011;2224;49.814;8.650;2023-05-13T06:31:04;7.63;;;7.03;;
4422;SDS011;2224;49.814;8.650;2023-05-13T06:33:29;8.27;;;7.43;;
4422;SDS011;2224;49.814;8.650;2023-05-13T06:35:54;8.57;;;7.77;;
4422;SDS011;2224;49.814;8.650;2023-05-13T06:38:20;6.60;;;6.10;;
4422;SDS011;2224;49.814;8.650;2023-05-13T06:40:45;6.93;;;6.33;;
4422;SDS011;2224;49.814;8.650;2023-05-13T06:43:10;6.63;;;6.03;;
4422;SDS011;2224;49.814;8.650;2023-05-13T06:45:38;6.97;;;5.90;;
4422;SDS011;2224;49.814;8.650;2023-05-13T06:48:03;7.30;;;6.13;;
4422;SDS011;2224;49.814;8.650;2023-05-13T06:50:29;7.70;;;6.60;;
4422;SDS011;2224;49.814;8.650;2023-05-13T06:52:54;5.83;;;5.43;;
4422;SDS011;2224;49.814;8.650;2023-05-13T06:55:20;6.40;;;5.90;;
4422;SDS011;2224;49.814;8.650;2023-05-13T06:57:45;6.73;;;5.73;;
4422;SDS011;2224;49.814;8.650;2023-05-13T07:00:11;6.60;;;5.90;;
4422;SDS011;2224;49.814;8.650;2023-05-13T07:02:40;14.93;;;6.67;;
4422;SDS011;2224;49.814;8.650;2023-05-13T07:05:06;6.90;;;6.20;;
4422;SDS011;2224;49.814;8.650;2023-05-13T07:07:32;6.20;;;5.70;;
4422;SDS011;2224;49.814;8.650;2023-05-13T07:09:57;6.37;;;5.73;;
4422;SDS011;2224;49.814;8.650;2023-05-13T07:12:22;5.80;;;5.23;;
4422;SDS011;2224;49.814;8.650;2023-05-13T07:14:48;5.57;;;5.00;;
4422;SDS011;2224;49.814;8.650;2023-05-13T07:17:13;6.50;;;5.83;;
4422;SDS011;2224;49.814;8.650;2023-05-13T07:19:38;6.20;;;5.60;;
4422;SDS011;2224;49.814;8.650;2023-05-13T07:22:04;9.57;;;5.50;;
4422;SDS011;2224;49.814;8.650;2023-05-13T07:24:29;6.23;;;5.73;;
4422;SDS011;2224;49.814;8.650;2023-05-13T07:26:54;5.87;;;5.47;;
4422;SDS011;2224;49.814;8.650;2023-05-13T07:29:20;5.53;;;5.10;;
4422;SDS011;2224;49.814;8.650;2023-05-13T07:31:45;5.70;;;5.30;;
4422;SDS011;2224;49.814;8.650;2023-05-13T07:34:10;5.60;;;5.03;;
4422;SDS011;2224;49.814;8.650;2023-05-13T07:36:36;4.73;;;4.37;;
4422;SDS011;2224;49.814;8.650;2023-05-13T07:39:01;5.20;;;4.80;;
4422;SDS011;2224;49.814;8.650;2023-05-13T07:41:27;5.53;;;5.03;;
4422;SDS011;2224;49.814;8.650;2023-05-13T07:43:52;4.87;;;4.47;;
4422;SDS011;2224;49.814;8.650;2023-05-13T07:46:18;4.60;;;4.20;;
4422;SDS011;2224;49.814;8.650;2023-05-13T07:48:43;4.97;;;4.07;;
4422;SDS011;2224;49.814;8.650;2023-05-13T07:51:08;5.00;;;4.50;;
4422;SDS011;2224;49.814;8.650;2023-05-13T07:53:34;4.83;;;4.20;;
4422;SDS011;2224;49.814;8.650;2023-05-13T07:56:00;5.87;;;4.40;;
4422;SDS011;2224;49.814;8.650;2023-05-13T07:58:26;5.80;;;5.03;;
4422;SDS011;2224;49.814;8.650;2023-05-13T08:00:51;5.30;;;4.30;;
4422;SDS011;2224;49.814;8.650;2023-05-13T08:03:16;4.20;;;3.90;;
4422;SDS011;2224;49.814;8.650;2023-05-13T08:05:42;6.60;;;4.60;;
4422;SDS011;2224;49.814;8.650;2023-05-13T08:08:07;5.40;;;4.47;;
4422;SDS011;2224;49.814;8.650;2023-05-13T08:10:32;5.17;;;4.67;;
4422;SDS011;2224;49.814;8.650;2023-05-13T08:12:59;6.30;;;4.80;;
4422;SDS011;2224;49.814;8.650;2023-05-13T08:15:25;4.80;;;4.30;;
4422;SDS011;2224;49.814;8.650;2023-05-13T08:17:50;4.80;;;4.40;;
4422;SDS011;2224;49.814;8.650;2023-05-13T08:20:17;7.83;;;5.00;;
4422;SDS011;2224;49.814;8.650;2023-05-13T08:22:43;5.27;;;4.37;;
4422;SDS011;2224;49.814;8.650;2023-05-13T08:25:08;7.70;;;5.23;;
4422;SDS011;2224;49.814;8.650;2023-05-13T08:27:36;5.13;;;4.43;;
4422;SDS011;2224;49.814;8.650;2023-05-13T08:30:02;4.03;;;3.73;;
4422;SDS011;2224;49.814;8.650;2023-05-13T08:32:28;5.40;;;3.90;;
4422;SDS011;2224;49.814;8.650;2023-05-13T08:34:54;6.37;;;4.33;;
4422;SDS011;2224;49.814;8.650;2023-05-13T08:37:20;5.13;;;4.50;;
4422;SDS011;2224;49.814;8.650;2023-05-13T08:39:45;4.40;;;4.00;;
4422;SDS011;2224;49.814;8.650;2023-05-13T08:42:10;7.03;;;5.23;;
4422;SDS011;2224;49.814;8.650;2023-05-13T08:44:39;5.63;;;5.13;;
4422;SDS011;2224;49.814;8.650;2023-05-13T08:47:12;4.63;;;4.23;;
4422;SDS011;2224;49.814;8.650;2023-05-13T08:49:49;5.30;;;4.73;;
4422;SDS011;2224;49.814;8.650;2023-05-13T08:52:15;5.73;;;4.70;;
4422;SDS011;2224;49.814;8.650;2023-05-13T08:54:42;7.40;;;5.00;;
4422;SDS011;2224;49.814;8.650;2023-05-13T08:57:07;5.43;;;4.90;;
4422;SDS011;2224;49.814;8.650;2023-05-13T08:59:32;4.70;;;4.30;;
4422;SDS011;2224;49.814;8.650;2023-05-13T09:01:58;4.50;;;4.20;;
4422;SDS011;2224;49.814;8.650;2023-05-13T09:04:27;4.73;;;4.23;;
4422;SDS011;2224;49.814;8.650;2023-05-13T09:06:52;8.00;;;5.03;;
4422;SDS011;2224;49.814;8.650;2023-05-13T09:09:17;4.90;;;4.50;;
4422;SDS011;2224;49.814;8.650;2023-05-13T09:11:45;5.70;;;4.90;;
4422;SDS011;2224;49.814;8.650;2023-05-13T09:14:12;4.90;;;4.50;;
4422;SDS011;2224;49.814;8.650;2023-05-13T09:16:38;6.60;;;6.07;;
4422;SDS011;2224;49.814;8.650;2023-05-13T09:19:04;5.03;;;4.33;;
4422;SDS011;2224;49.814;8.650;2023-05-13T09:21:31;4.73;;;4.13;;
4422;SDS011;2224;49.814;8.650;2023-05-13T09:24:04;4.73;;;4.30;;
4422;SDS011;2224;49.814;8.650;2023-05-13T09:26:32;5.50;;;5.00;;
4422;SDS011;2224;49.814;8.650;2023-05-13T09:29:17;5.30;;;4.80;;
4422;SDS011;2224;49.814;8.650;2023-05-13T09:31:44;8.37;;;5.50;;
4422;SDS011;2224;49.814;8.650;2023-05-13T09:34:10;5.47;;;4.97;;
4422;SDS011;2224;49.814;8.650;2023-05-13T09:36:36;4.97;;;4.47;;
4422;SDS011;2224;49.814;8.650;2023-05-13T09:39:02;11.03;;;5.53;;
4422;SDS011;2224;49.814;8.650;2023-05-13T09:41:29;6.30;;;5.00;;
4422;SDS011;2224;49.814;8.650;2023-05-13T09:43:54;4.93;;;4.53;;
4422;SDS011;2224;49.814;8.650;2023-05-13T09:46:20;5.20;;;4.80;;
4422;SDS011;2224;49.814;8.650;2023-05-13T09:48:45;5.40;;;5.00;;
4422;SDS011;2224;49.814;8.650;2023-05-13T09:51:11;5.60;;;5.10;;
4422;SDS011;2224;49.814;8.650;2023-05-13T09:53:36;5.00;;;4.60;;
4422;SDS011;2224;49.814;8.650;2023-05-13T09:56:01;6.93;;;5.30;;
4422;SDS011;2224;49.814;8.650;2023-05-13T09:58:27;8.40;;;4.83;;
4422;SDS011;2224;49.814;8.650;2023-05-13T10:00:54;5.17;;;4.77;;
4422;SDS011;2224;49.814;8.650;2023-05-13T10:03:20;4.90;;;4.50;;
4422;SDS011;2224;49.814;8.650;2023-05-13T10:05:46;5.93;;;4.90;;
4422;SDS011;2224;49.814;8.650;2023-05-13T10:08:13;4.70;;;4.30;;
4422;SDS011;2224;49.814;8.650;2023-05-13T10:10:41;4.80;;;4.23;;
4422;SDS011;2224;49.814;8.650;2023-05-13T10:13:17;5.77;;;4.80;;
4422;SDS011;2224;49.814;8.650;2023-05-13T10:15:50;5.57;;;5.07;;
4422;SDS011;2224;49.814;8.650;2023-05-13T10:18:16;5.40;;;5.00;;
4422;SDS011;2224;49.814;8.650;2023-05-13T10:20:42;6.37;;;5.40;;
4422;SDS011;2224;49.814;8.650;2023-05-13T10:23:08;5.57;;;5.07;;
4422;SDS011;2224;49.814;8.650;2023-05-13T10:25:34;4.87;;;4.57;;
4422;SDS011;2224;49.814;8.650;2023-05-13T10:28:00;5.67;;;5.07;;
4422;SDS011;2224;49.814;8.650;2023-05-13T10:30:27;5.50;;;5.10;;
4422;SDS011;2224;49.814;8.650;2023-05-13T10:32:55;6.33;;;5.07;;
4422;SDS011;2224;49.814;8.650;2023-05-13T10:35:21;5.37;;;4.90;;
4422;SDS011;2224;49.814;8.650;2023-05-13T10:43:28;6.03;;;5.43;;
4422;SDS011;2224;49.814;8.650;2023-05-13T10:45:55;4.97;;;4.57;;
4422;SDS011;2224;49.814;8.650;2023-05-13T10:48:22;5.27;;;4.80;;
4422;SDS011;2224;49.814;8.650;2023-05-13T10:50:54;4.33;;;4.03;;
4422;SDS011;2224;49.814;8.650;2023-05-13T10:53:22;4.83;;;4.43;;
4422;SDS011;2224;49.814;8.650;2023-05-13T10:55:53;4.77;;;4.37;;
4422;SDS011;2224;49.814;8.650;2023-05-13T10:58:19;4.83;;;4.40;;
4422;SDS011;2224;49.814;8.650;2023-05-13T11:00:48;5.67;;;4.83;;
4422;SDS011;2224;49.814;8.650;2023-05-13T11:03:32;5.60;;;5.20;;
4422;SDS011;2224;49.814;8.650;2023-05-13T11:05:59;5.27;;;4.80;;
4422;SDS011;2224;49.814;8.650;2023-05-13T11:08:38;5.47;;;5.00;;
4422;SDS011;2224;49.814;8.650;2023-05-13T11:11:17;5.10;;;4.60;;
4422;SDS011;2224;49.814;8.650;2023-05-13T11:13:45;4.50;;;4.10;;
4422;SDS011;2224;49.814;8.650;2023-05-13T11:16:13;4.70;;;4.40;;
4422;SDS011;2224;49.814;8.650;2023-05-13T11:18:39;4.63;;;4.23;;
4422;SDS011;2224;49.814;8.650;2023-05-13T11:21:05;4.70;;;4.30;;
4422;SDS011;2224;49.814;8.650;2023-05-13T11:23:31;4.73;;;4.17;;
4422;SDS011;2224;49.814;8.650;2023-05-13T11:26:08;4.67;;;4.27;;
4422;SDS011;2224;49.814;8.650;2023-05-13T11:28:54;5.80;;;5.30;;
4422;SDS011;2224;49.814;8.650;2023-05-13T11:31:25;5.30;;;4.80;;
4422;SDS011;2224;49.814;8.650;2023-05-13T11:36:37;5.63;;;5.13;;
4422;SDS011;2224;49.814;8.650;2023-05-13T11:39:05;5.20;;;4.70;;
4422;SDS011;2224;49.814;8.650;2023-05-13T11:41:31;4.80;;;4.30;;
4422;SDS011;2224;49.814;8.650;2023-05-13T11:43:57;5.63;;;5.13;;
4422;SDS011;2224;49.814;8.650;2023-05-13T11:46:23;6.17;;;5.57;;
4422;SDS011;2224;49.814;8.650;2023-05-13T11:48:49;5.80;;;5.30;;
4422;SDS011;2224;49.814;8.650;2023-05-13T11:51:16;7.00;;;5.20;;
4422;SDS011;2224;49.814;8.650;2023-05-13T11:53:42;6.43;;;5.13;;
4422;SDS011;2224;49.814;8.650;2023-05-13T11:56:10;6.37;;;5.80;;
4422;SDS011;2224;49.814;8.650;2023-05-13T11:58:36;5.53;;;5.03;;
4422;SDS011;2224;49.814;8.650;2023-05-13T12:01:02;5.80;;;5.00;;
4422;SDS011;2224;49.814;8.650;2023-05-13T12:03:27;4.90;;;4.50;;
4422;SDS011;2224;49.814;8.650;2023-05-13T12:05:59;5.63;;;5.13;;
4422;SDS011;2224;49.814;8.650;2023-05-13T12:08:27;5.13;;;4.63;;
4422;SDS011;2224;49.814;8.650;2023-05-13T12:10:53;4.77;;;4.37;;
4422;SDS011;2224;49.814;8.650;2023-05-13T12:13:19;6.43;;;5.40;;
4422;SDS011;2224;49.814;8.650;2023-05-13T12:15:44;5.47;;;4.97;;
4422;SDS011;2224;49.814;8.650;2023-05-13T12:18:10;5.37;;;4.83;;
4422;SDS011;2224;49.814;8.650;2023-05-13T12:20:36;6.43;;;5.10;;
4422;SDS011;2224;49.814;8.650;2023-05-13T12:23:02;6.90;;;4.70;;
4422;SDS011;2224;49.814;8.650;2023-05-13T12:25:38;5.17;;;4.23;;
4422;SDS011;2224;49.814;8.650;2023-05-13T12:28:21;5.57;;;5.13;;
4422;SDS011;2224;49.814;8.650;2023-05-13T12:30:48;5.03;;;4.60;;
4422;SDS011;2224;49.814;8.650;2023-05-13T12:33:20;4.80;;;4.33;;
4422;SDS011;2224;49.814;8.650;2023-05-13T12:36:24;5.73;;;5.03;;
4422;SDS011;2224;49.814;8.650;2023-05-13T12:41:22;8.43;;;4.70;;
4422;SDS011;2224;49.814;8.650;2023-05-13T12:43:50;5.50;;;4.87;;
4422;SDS011;2224;49.814;8.650;2023-05-13T12:46:20;4.43;;;4.03;;
4422;SDS011;2224;49.814;8.650;2023-05-13T12:48:45;6.67;;;4.80;;
4422;SDS011;2224;49.814;8.650;2023-05-13T12:51:10;5.73;;;5.23;;
4422;SDS011;2224;49.814;8.650;2023-05-13T12:53:36;6.97;;;4.73;;
4422;SDS011;2224;49.814;8.650;2023-05-13T12:56:01;5.20;;;4.63;;
4422;SDS011;2224;49.814;8.650;2023-05-13T12:58:26;4.70;;;4.30;;
4422;SDS011;2224;49.814;8.650;2023-05-13T13:00:52;6.20;;;4.83;;
4422;SDS011;2224;49.814;8.650;2023-05-13T13:03:17;4.77;;;4.37;;
4422;SDS011;2224;49.814;8.650;2023-05-13T13:05:42;5.20;;;4.70;;
4422;SDS011;2224;49.814;8.650;2023-05-13T13:08:08;4.80;;;4.40;;
4422;SDS011;2224;49.814;8.650;2023-05-13T13:10:33;10.10;;;4.50;;
4422;SDS011;2224;49.814;8.650;2023-05-13T13:12:58;7.47;;;4.40;;
4422;SDS011;2224;49.814;8.650;2023-05-13T13:15:24;5.10;;;4.03;;
4422;SDS011;2224;49.814;8.650;2023-05-13T13:17:49;4.87;;;4.20;;
4422;SDS011;2224;49.814;8.650;2023-05-13T13:20:14;4.33;;;4.00;;
4422;SDS011;2224;49.814;8.650;2023-05-13T13:22:40;5.60;;;4.60;;
4422;SDS011;2224;49.814;8.650;2023-05-13T13:25:05;4.33;;;3.70;;
4422;SDS011;2224;49.814;8.650;2023-05-13T13:27:32;7.83;;;4.70;;
4422;SDS011;2224;49.814;8.650;2023-05-13T13:29:57;7.27;;;6.17;;
4422;SDS011;2224;49.814;8.650;2023-05-13T13:32:23;8.40;;;5.67;;
4422;SDS011;2224;49.814;8.650;2023-05-13T13:34:48;8.00;;;6.47;;
4422;SDS011;2224;49.814;8.650;2023-05-13T13:37:14;11.70;;;6.80;;
4422;SDS011;2224;49.814;8.650;2023-05-13T13:39:40;7.40;;;6.70;;
4422;SDS011;2224;49.814;8.650;2023-05-13T13:42:06;7.83;;;7.20;;
4422;SDS011;2224;49.814;8.650;2023-05-13T13:44:32;7.50;;;6.83;;
4422;SDS011;2224;49.814;8.650;2023-05-13T13:46:57;7.37;;;6.50;;
4422;SDS011;2224;49.814;8.650;2023-05-13T13:49:23;8.17;;;6.77;;
4422;SDS011;2224;49.814;8.650;2023-05-13T13:51:49;6.40;;;5.90;;
4422;SDS011;2224;49.814;8.650;2023-05-13T13:54:17;6.50;;;6.00;;
4422;SDS011;2224;49.814;8.650;2023-05-13T13:56:42;8.13;;;5.90;;
4422;SDS011;2224;49.814;8.650;2023-05-13T13:59:08;8.80;;;7.20;;
4422;SDS011;2224;49.814;8.650;2023-05-13T14:01:33;9.93;;;6.00;;
4422;SDS011;2224;49.814;8.650;2023-05-13T14:04:12;6.67;;;6.03;;
4422;SDS011;2224;49.814;8.650;2023-05-13T14:06:40;7.30;;;6.27;;
4422;SDS011;2224;49.814;8.650;2023-05-13T14:09:06;5.60;;;5.20;;
4422;SDS011;2224;49.814;8.650;2023-05-13T14:11:32;5.43;;;5.03;;
4422;SDS011;2224;49.814;8.650;2023-05-13T14:13:57;6.20;;;5.70;;
4422;SDS011;2224;49.814;8.650;2023-05-13T14:16:23;5.70;;;5.20;;
4422;SDS011;2224;49.814;8.650;2023-05-13T14:18:48;5.30;;;4.80;;
4422;SDS011;2224;49.814;8.650;2023-05-13T14:21:13;5.80;;;5.40;;
4422;SDS011;2224;49.814;8.650;2023-05-13T14:23:39;5.30;;;4.30;;
4422;SDS011;2224;49.814;8.650;2023-05-13T14:26:06;7.03;;;5.17;;
4422;SDS011;2224;49.814;8.650;2023-05-13T14:28:33;7.60;;;5.00;;
4422;SDS011;2224;49.814;8.650;2023-05-13T14:30:58;5.83;;;5.23;;
4422;SDS011;2224;49.814;8.650;2023-05-13T14:33:24;6.73;;;6.03;;
4422;SDS011;2224;49.814;8.650;2023-05-13T14:35:49;5.47;;;4.97;;
4422;SDS011;2224;49.814;8.650;2023-05-13T14:38:15;5.10;;;4.60;;
4422;SDS011;2224;49.814;8.650;2023-05-13T14:40:40;5.20;;;4.70;;
4422;SDS011;2224;49.814;8.650;2023-05-13T14:43:06;5.50;;;5.03;;
4422;SDS011;2224;49.814;8.650;2023-05-13T14:45:31;4.93;;;4.53;;
4422;SDS011;2224;49.814;8.650;2023-05-13T14:47:56;4.53;;;4.23;;
4422;SDS011;2224;49.814;8.650;2023-05-13T14:50:22;5.90;;;4.90;;
4422;SDS011;2224;49.814;8.650;2023-05-13T14:52:47;4.90;;;4.50;;
4422;SDS011;2224;49.814;8.650;2023-05-13T14:55:12;4.87;;;4.37;;
4422;SDS011;2224;49.814;8.650;2023-05-13T14:57:38;3.83;;;3.60;;
4422;SDS011;2224;49.814;8.650;2023-05-13T15:00:04;4.13;;;3.80;;
4422;SDS011;2224;49.814;8.650;2023-05-13T15:02:29;4.30;;;3.90;;
4422;SDS011;2224;49.814;8.650;2023-05-13T15:04:55;4.43;;;3.90;;
4422;SDS011;2224;49.814;8.650;2023-05-13T15:07:20;4.57;;;4.17;;
4422;SDS011;2224;49.814;8.650;2023-05-13T15:09:46;4.47;;;4.07;;
4422;SDS011;2224;49.814;8.650;2023-05-13T15:12:13;4.67;;;4.20;;
4422;SDS011;2224;49.814;8.650;2023-05-13T15:14:40;4.57;;;4.17;;
4422;SDS011;2224;49.814;8.650;2023-05-13T15:17:05;4.03;;;3.73;;
4422;SDS011;2224;49.814;8.650;2023-05-13T15:19:35;4.73;;;4.30;;